Latest Weather Observations for Bunbury

IDW60801

Issued at 6:34 pm WST Saturday 24 June 2017 (issued every 30 minutes, with the page automatically refreshed every 10 minutes)

About weather observations | Map of weather stations | Latest weather observations for WA | Other Formats
Station Details ID: 009965 Name: BUNBURY Lat: -33.36 Lon: 115.64 Height: 5.2 m
Data from the previous 72 hours. | See also: Recent months at Bunbury
Date/Time
WST
Temp
°C
App
Temp
°C
Dew
Point
°C
Rel
Hum
%
Delta-T
°C
Wind Press
QNH
hPa
Press
MSL
hPa
Rain since
9am
mm
Dir  Spd
km/h
Gust
km/h
Spd
kts
Gust
kts
24/06:30pm 11.1 9.0 6.5 73 2.2 SSW 7 9 4 5 1026.5 1026.5 0.0
24/06:00pm 11.5 9.8 6.0 69 2.6 S 4 6 2 3 1026.1 1026.1 0.0
24/05:30pm 13.4 11.3 6.0 61 3.5 SSE 6 7 3 4 1025.8 1025.8 0.0
24/05:00pm 14.7 12.1 6.0 56 4.1 SSE 9 13 5 7 1025.6 1025.6 0.0
24/04:30pm 16.1 12.3 6.0 51 4.9 SE 15 24 8 13 1025.4 1025.4 0.0
24/04:00pm 16.6 12.9 6.4 51 5.0 SSE 15 24 8 13 1025.3 1025.3 0.0
24/03:30pm 16.9 12.5 6.7 51 5.0 SE 19 28 10 15 1025.2 1025.2 0.0
24/03:00pm 16.6 12.2 6.4 51 5.0 SE 19 28 10 15 1025.2 1025.2 0.0
24/02:30pm 17.3 13.0 7.1 51 5.1 SSE 19 30 10 16 1025.3 1025.3 0.0
24/02:00pm 17.2 12.8 6.7 50 5.2 SE 19 28 10 15 1025.2 1025.2 0.0
24/01:30pm 16.9 12.5 6.4 50 5.1 SE 19 24 10 13 1025.6 1025.6 0.0
24/01:00pm 16.8 12.5 6.9 52 4.9 SE 19 24 10 13 1026.0 1026.0 0.0
24/12:30pm 16.6 12.4 7.3 54 4.6 ESE 19 28 10 15 1026.4 1026.4 0.0
24/12:00pm 16.2 11.9 6.9 54 4.6 SE 19 24 10 13 1026.8 1026.8 0.0
24/11:30am 15.1 11.4 7.9 62 3.6 SE 17 22 9 12 1027.4 1027.4 0.0
24/11:00am 14.4 11.9 8.4 67 3.0 SE 11 19 6 10 1028.0 1028.0 0.0
24/10:30am 13.6 11.1 8.0 69 2.8 SE 11 15 6 8 1028.5 1028.5 0.0
24/10:00am 12.6 9.9 7.3 70 2.5 ESE 11 19 6 10 1028.6 1028.6 0.0
24/09:30am 11.3 9.3 7.0 75 2.0 SSE 7 15 4 8 1028.6 1028.6 0.0
24/09:00am 9.8 7.3 6.5 80 1.5 SSE 9 15 5 8 1028.3 1028.3 0.0
24/08:30am 8.5 6.3 6.0 84 1.1 SSE 7 9 4 5 1028.1 1028.1 0.0
24/08:00am 7.5 5.1 5.3 86 1.0 SSE 7 9 4 5 1027.8 1027.8 0.0
24/07:30am 6.7 3.8 4.5 86 1.0 SSE 9 13 5 7 1027.4 1027.4 0.0
24/07:00am 6.9 3.6 4.7 86 1.0 SSE 11 13 6 7 1027.3 1027.3 0.0
24/06:30am 7.0 4.1 4.7 85 1.0 SSE 9 15 5 8 1026.9 1026.9 0.0
24/06:00am 7.1 3.8 4.8 85 1.0 SSE 11 13 6 7 1026.6 1026.6 0.0
24/05:30am 6.9 4.0 4.6 85 1.0 SSE 9 13 5 7 1026.5 1026.5 0.0
24/05:00am 6.9 4.0 4.4 84 1.1 SSE 9 13 5 7 1026.5 1026.5 0.0
24/04:30am 7.3 4.4 4.6 83 1.2 SSE 9 13 5 7 1026.6 1026.6 0.0
24/04:00am 7.5 4.2 4.6 82 1.3 SSE 11 15 6 8 1026.6 1026.6 0.0
24/03:30am 7.3 4.4 4.6 83 1.2 S 9 11 5 6 1026.8 1026.8 0.0
24/03:00am 6.7 5.0 3.9 82 1.2 SSE 2 7 1 4 1026.9 1026.9 0.0
24/02:30am 8.1 5.2 4.7 79 1.5 SSE 9 15 5 8 1027.0 1027.0 0.0
24/02:00am 9.3 6.5 5.1 75 1.9 SSE 9 13 5 7 1027.0 1027.0 0.0
24/01:30am 9.5 6.3 5.3 75 1.9 SSE 11 17 6 9 1026.9 1026.9 0.0
24/01:00am 8.5 5.3 5.1 79 1.5 S 11 15 6 8 1026.7 1026.7 0.0
24/12:30am 8.7 5.8 4.5 75 1.9 SSW 9 11 5 6 1026.9 1026.9 0.0
24/12:00am 10.3 7.2 5.5 72 2.2 SE 11 13 6 7 1026.9 1026.9 0.0
 
Date/Time
WST
Temp
°C
App
Temp
°C
Dew
Point
°C
Rel
Hum
%
Delta-T
°C
Wind Press
QNH
hPa
Press
MSL
hPa
Rain since
9am
mm
Dir  Spd
km/h
Gust
km/h
Spd
kts
Gust
kts
23/11:30pm 9.9 7.5 5.1 72 2.2 ESE 7 13 4 7 1026.8 1026.8 0.0
23/11:00pm 10.0 7.5 5.0 71 2.2 SE 7 13 4 7 1026.8 1026.8 0.0
23/10:30pm 10.4 7.9 5.0 69 2.4 SE 7 13 4 7 1026.6 1026.6 0.0
23/10:00pm 11.0 8.2 5.1 67 2.7 ESE 9 15 5 8 1026.6 1026.6 0.0
23/09:30pm 11.3 8.2 5.4 67 2.7 SE 11 15 6 8 1026.5 1026.5 0.0
23/09:00pm 12.0 8.2 5.6 65 3.0 SE 15 24 8 13 1026.3 1026.3 0.0
23/08:30pm 12.4 8.6 5.8 64 3.1 SE 15 24 8 13 1026.0 1026.0 0.0
23/08:00pm 12.9 9.1 6.0 63 3.2 SSE 15 24 8 13 1025.8 1025.8 0.0
23/07:30pm 13.2 9.4 5.9 61 3.4 SE 15 26 8 14 1025.4 1025.4 0.0
23/07:00pm 13.9 9.8 6.0 59 3.7 SSE 17 22 9 12 1024.9 1024.9 0.0
23/06:30pm 14.3 10.7 6.9 61 3.6 SSE 15 28 8 15 1024.6 1024.6 0.0
23/06:00pm 14.9 11.8 7.2 60 3.8 SE 13 20 7 11 1024.1 1024.1 0.0
23/05:30pm 15.6 12.7 8.1 61 3.8 SSE 13 19 7 10 1023.5 1023.5 0.0
23/05:00pm 16.0 12.4 8.2 60 3.9 SE 17 24 9 13 1023.2 1023.2 0.0
23/04:30pm 16.0 12.1 8.5 61 3.8 SE 19 28 10 15 1022.9 1022.9 0.0
23/04:00pm 16.5 12.5 9.0 61 3.8 SE 20 35 11 19 1022.7 1022.7 0.0
23/03:30pm 16.8 12.8 9.0 60 4.0 SE 20 37 11 20 1022.5 1022.5 0.0
23/03:00pm 17.8 12.8 9.4 58 4.4 SE 26 37 14 20 1022.2 1022.2 0.0
23/02:30pm 17.7 13.0 9.3 58 4.4 SE 24 43 13 23 1022.2 1022.2 0.0
23/02:00pm 17.5 12.5 9.4 59 4.2 ESE 26 35 14 19 1022.3 1022.3 0.0
23/01:30pm 17.4 12.8 9.8 61 4.0 ESE 24 37 13 20 1022.2 1022.2 0.0
23/01:00pm 17.9 13.0 10.0 60 4.2 SE 26 39 14 21 1022.3 1022.3 0.0
23/12:30pm 17.1 11.6 10.5 65 3.5 SE 30 46 16 25 1022.5 1022.5 0.0
23/12:12pm 16.9 11.8 10.5 66 3.4 ESE 28 46 15 25 1022.8 1022.8 0.0
23/12:00pm 16.5 11.0 10.6 68 3.1 SE 30 44 16 24 1022.8 1022.8 0.0
23/11:30am 16.1 11.1 11.1 72 2.7 SE 28 43 15 23 1023.1 1023.1 0.0
23/11:00am 16.5 13.4 11.6 73 2.6 SE 19 32 10 17 1023.4 1023.4 0.0
23/10:30am 16.5 11.5 11.0 70 2.9 SE 28 37 15 20 1023.1 1023.1 0.0
23/10:00am 16.1 11.1 11.1 72 2.7 SE 28 43 15 23 1023.1 1023.1 0.0
23/09:30am 15.6 10.6 11.0 74 2.5 SE 28 39 15 21 1022.7 1022.7 0.0
23/09:00am 15.6 12.1 10.8 73 2.5 SE 20 30 11 16 1022.2 1022.2 0.0
23/08:30am 15.2 11.8 10.4 73 2.5 SSE 19 33 10 18 1021.8 1021.8 0.0
23/08:00am 14.6 11.5 10.2 75 2.3 SE 17 28 9 15 1021.6 1021.6 0.0
23/07:30am 14.2 11.3 9.8 75 2.3 SE 15 24 8 13 1021.1 1021.1 0.0
23/07:00am 14.2 10.5 9.6 74 2.4 SE 19 30 10 16 1020.7 1020.7 0.0
23/06:30am 14.4 10.5 9.6 73 2.5 SE 20 32 11 17 1020.1 1020.1 0.0
23/06:00am 14.8 11.0 9.8 72 2.6 SE 20 30 11 16 1019.7 1019.6 0.0
23/05:30am 14.7 10.9 9.9 73 2.5 SE 20 32 11 17 1019.3 1019.2 0.0
23/05:00am 14.6 11.0 10.0 74 2.4 SE 19 32 10 17 1019.0 1018.9 0.0
23/04:30am 14.4 11.2 10.0 75 2.3 SSE 17 32 9 17 1018.8 1018.7 0.0
23/04:00am 14.3 10.7 9.9 75 2.3 SE 19 32 10 17 1018.7 1018.6 0.0
23/03:30am 14.5 10.0 9.9 74 2.4 SE 24 35 13 19 1018.5 1018.4 0.0
23/03:00am 14.3 10.4 9.5 73 2.5 SE 20 30 11 16 1018.4 1018.3 0.0
23/02:30am 14.5 10.6 9.5 72 2.6 SE 20 33 11 18 1018.4 1018.3 0.0
23/02:00am 14.8 10.6 9.8 72 2.6 SE 22 35 12 19 1018.2 1018.1 0.0
23/01:30am 14.9 10.3 9.7 71 2.7 SE 24 41 13 22 1017.8 1017.7 0.0
23/01:00am 14.9 10.6 9.5 70 2.8 SSE 22 37 12 20 1017.7 1017.6 0.0
23/12:30am 14.9 10.3 9.5 70 2.8 SSE 24 39 13 21 1017.4 1017.3 0.0
23/12:00am 14.8 10.6 9.6 71 2.7 SE 22 32 12 17 1017.3 1017.2 0.0
 
Date/Time
WST
Temp
°C
App
Temp
°C
Dew
Point
°C
Rel
Hum
%
Delta-T
°C
Wind Press
QNH
hPa
Press
MSL
hPa
Rain since
9am
mm
Dir  Spd
km/h
Gust
km/h
Spd
kts
Gust
kts
22/11:30pm 14.7 10.1 9.5 71 2.7 SSE 24 44 13 24 1017.2 1017.1 0.0
22/11:00pm 14.4 10.4 9.2 71 2.6 SSE 20 35 11 19 1017.2 1017.1 0.0
22/10:30pm 14.5 10.5 9.1 70 2.8 SSE 20 30 11 16 1016.8 1016.7 0.0
22/10:00pm 14.8 10.5 9.2 69 2.9 SSE 22 39 12 21 1016.4 1016.3 0.0
22/09:30pm 14.9 10.2 9.3 69 2.9 SSE 24 37 13 20 1016.0 1015.9 0.0
22/09:00pm 14.7 11.0 9.5 71 2.7 SSE 19 32 10 17 1016.1 1016.0 0.0
22/08:30pm 15.1 11.2 9.5 69 2.9 SSE 20 33 11 18 1015.4 1015.3 0.0
22/08:00pm 15.3 10.6 9.4 68 3.0 SE 24 43 13 23 1015.1 1015.0 0.0
22/07:30pm 15.7 10.8 10.0 69 3.0 SE 26 46 14 25 1014.8 1014.7 0.0
22/07:00pm 15.9 11.1 10.4 70 2.9 SSE 26 41 14 22 1014.3 1014.2 0.0
22/06:36pm 16.1 11.0 10.6 70 2.9 SSE 28 50 15 27 1014.1 1014.0 0.0
22/06:30pm 16.2 11.5 10.5 69 3.0 SSE 26 35 14 19 1014.1 1014.0 0.0
22/06:00pm 16.7 11.7 9.6 63 3.7 SSE 26 43 14 23 1013.4 1013.4 0.0
22/05:37pm 16.9 11.7 10.3 65 3.5 SSE 28 50 15 27 1013.0 1013.0 0.0
22/05:30pm 16.8 12.4 10.4 66 3.4 SSE 24 37 13 20 1012.9 1012.9 0.0
22/05:00pm 17.5 13.0 10.1 62 3.9 SSE 24 32 13 17 1012.3 1012.3 0.0
22/04:30pm 17.8 13.9 8.6 55 4.7 SSE 19 30 10 16 1011.9 1011.9 0.0
22/04:00pm 18.0 14.0 9.1 56 4.6 SSE 20 28 11 15 1011.6 1011.6 0.0
22/03:30pm 18.0 13.5 9.9 59 4.3 SSE 24 35 13 19 1011.2 1011.2 0.0
22/03:00pm 18.0 13.8 9.9 59 4.3 SSE 22 32 12 17 1010.9 1010.9 0.0
22/02:30pm 17.9 13.5 10.3 61 4.1 SSE 24 35 13 19 1010.5 1010.5 0.0
22/02:00pm 17.9 13.4 10.0 60 4.2 SSE 24 35 13 19 1010.3 1010.3 0.0
22/01:30pm 17.6 13.2 10.5 63 3.8 SE 24 39 13 21 1010.3 1010.3 0.0
22/01:00pm 17.3 13.4 10.9 66 3.4 SE 22 37 12 20 1010.0 1010.0 0.0
22/12:30pm 16.6 11.5 10.7 68 3.1 SE 28 41 15 22 1010.0 1010.0 0.0
22/12:00pm 16.0 11.3 10.7 71 2.8 SE 26 39 14 21 1010.3 1010.3 0.0
22/11:30am 15.6 10.2 10.8 73 2.5 ESE 30 41 16 22 1010.4 1010.4 0.0
22/11:03am 15.0 9.1 10.6 75 2.3 SE 32 52 17 28 1010.4 1010.4 0.0
22/11:00am 14.8 8.7 10.4 75 2.3 SE 33 50 18 27 1010.4 1010.4 0.0
22/10:52am 15.0 10.0 10.8 76 2.2 SE 28 46 15 25 1010.4 1010.4 0.0
22/10:30am 14.5 10.6 10.9 79 1.9 SE 22 35 12 19 1010.2 1010.2 0.0
22/10:00am 13.6 9.3 10.6 82 1.6 SE 24 39 13 21 1009.9 1009.9 0.0
22/09:30am 13.5 8.8 10.7 83 1.5 SE 26 43 14 23 1009.6 1009.6 0.0
22/09:00am 13.2 9.3 10.9 86 1.2 SE 22 33 12 18 1009.1 1009.1 38.2
22/08:30am 13.1 8.9 11.2 88 1.0 ESE 24 35 13 19 1008.6 1008.6 38.2
22/08:00am 12.8 8.3 11.4 91 0.7 SE 26 37 14 20 1008.4 1008.4 38.2
22/07:30am 12.7 9.0 11.4 92 0.7 SE 22 32 12 17 1007.9 1007.9 37.8
22/07:00am 12.6 8.1 11.3 92 0.7 SE 26 41 14 22 1007.2 1007.2 37.0
22/06:30am 12.8 8.7 11.5 92 0.7 SE 24 37 13 20 1006.9 1006.9 35.4
22/06:00am 13.0 9.4 11.7 92 0.7 SE 22 30 12 16 1006.5 1006.5 34.0
22/05:30am 12.9 9.6 11.6 92 0.7 SE 20 35 11 19 1005.9 1005.9 31.4
22/05:00am 13.1 9.8 11.7 91 0.7 SE 20 32 11 17 1005.4 1005.4 26.4
22/04:30am 13.4 9.8 11.8 90 0.9 ESE 22 32 12 17 1005.1 1005.1 24.0
22/04:00am 13.5 9.9 11.7 89 1.0 E 22 32 12 17 1004.9 1004.9 21.4
22/03:30am 13.8 10.2 11.7 87 1.1 E 22 35 12 19 1004.6 1004.6 19.8
22/03:00am 13.8 9.8 11.8 88 1.1 ENE 24 35 13 19 1004.5 1004.5 18.8
22/02:30am 13.7 10.1 11.9 89 1.0 ENE 22 35 12 19 1004.8 1004.8 18.8
22/02:00am 13.8 9.4 11.8 88 1.1 NE 26 43 14 23 1005.0 1005.0 18.4
22/01:30am 13.9 9.3 12.3 90 0.9 NE 28 44 15 24 1005.1 1005.1 17.6
22/01:00am 13.7 9.1 12.3 91 0.8 NE 28 44 15 24 1005.9 1005.9 17.6
22/12:30am 13.5 9.7 12.4 93 0.6 NE 24 35 13 19 1006.1 1006.1 17.6
22/12:00am 13.7 9.6 12.6 93 0.6 NE 26 43 14 23 1006.6 1006.6 17.6
 
Date/Time
WST
Temp
°C
App
Temp
°C
Dew
Point
°C
Rel
Hum
%
Delta-T
°C
Wind Press
QNH
hPa
Press
MSL
hPa
Rain since
9am
mm
Dir  Spd
km/h
Gust
km/h
Spd
kts
Gust
kts
21/11:30pm 13.7 10.0 12.6 93 0.6 NE 24 39 13 21 1007.1 1007.1 17.6
21/11:00pm 13.9 10.2 12.6 92 0.7 NE 24 35 13 19 1007.3 1007.3 16.2
21/10:30pm 13.6 10.6 12.5 93 0.6 NE 20 33 11 18 1007.7 1007.7 15.8
21/10:00pm 13.9 11.0 12.8 93 0.6 NNE 20 30 11 16 1008.1 1008.1 15.8
21/09:30pm 13.9 11.5 12.6 92 0.7 N 17 28 9 15 1008.5 1008.5 15.8
21/09:00pm 14.3 11.4 12.9 91 0.8 NNE 20 39 11 21 1008.2 1008.2 12.2
21/08:30pm 14.5 10.8 12.7 89 1.0 NNE 24 37 13 20 1008.7 1008.7 10.2
21/08:00pm 15.3 10.2 13.2 87 1.2 N 32 50 17 27 1008.9 1008.9 9.6
21/07:58pm 15.5 10.5 13.3 87 1.2 N 32 50 17 27 1008.8 1008.8 9.6
21/07:30pm 15.5 13.8 13.5 88 1.1 N 15 30 8 16 1008.6 1008.6 9.4
21/07:03pm 13.9 9.1 11.8 87 1.1 N 28 48 15 26 1009.0 1009.0 9.0
21/07:00pm 14.0 9.7 12.0 88 1.1 NNE 26 48 14 26 1009.1 1009.1 9.0

Other Formats:

Comma delimited format used in spreadsheet applications
http://www.bom.gov.au/fwo/IDW60801/IDW60801.94604.axf

JavaScript Object Notation format (JSON) in row-major order
http://www.bom.gov.au/fwo/IDW60801/IDW60801.94604.json